createdAt,value
2018-08-30T00:00:05.854Z,71.60
2018-08-30T00:05:07.982Z,71.77
2018-08-30T00:10:10.222Z,71.60
2018-08-30T00:15:12.577Z,71.80
2018-08-30T00:20:14.721Z,72.25
2018-08-30T00:25:16.887Z,72.13
2018-08-30T00:30:19.003Z,72.36
2018-08-30T00:35:21.163Z,72.22
2018-08-30T00:40:23.309Z,72.48
2018-08-30T00:45:25.441Z,72.45
2018-08-30T00:50:27.565Z,72.58
2018-08-30T00:55:29.685Z,72.02
2018-08-30T01:00:31.819Z,72.79
2018-08-30T01:05:34.346Z,72.50
2018-08-30T01:10:36.503Z,72.78
2018-08-30T01:15:38.619Z,72.74
2018-08-30T01:20:40.746Z,72.03
2018-08-30T01:25:42.869Z,72.64
2018-08-30T01:30:45.031Z,72.62
2018-08-30T01:35:47.282Z,73.21
2018-08-30T01:40:49.436Z,73.93
2018-08-30T01:45:51.682Z,74.18
2018-08-30T01:50:53.801Z,74.53
2018-08-30T01:55:55.897Z,74.21
2018-08-30T02:00:58.039Z,74.51
2018-08-30T02:06:00.260Z,74.52
2018-08-30T02:11:02.404Z,75.52
2018-08-30T02:16:04.680Z,76.46
2018-08-30T02:21:06.827Z,75.96
2018-08-30T02:26:08.946Z,75.89
2018-08-30T02:31:11.088Z,76.47
2018-08-30T02:36:13.516Z,76.97
2018-08-30T02:41:15.647Z,78.08
2018-08-30T02:46:17.748Z,79.02
2018-08-30T02:51:19.899Z,79.27
2018-08-30T02:56:22.003Z,79.98
2018-08-30T03:01:24.127Z,80.12
2018-08-30T03:06:26.939Z,80.34
2018-08-30T03:11:29.042Z,80.31
2018-08-30T03:16:31.199Z,80.14
2018-08-30T03:21:33.372Z,80.20
2018-08-30T03:26:35.512Z,80.40
2018-08-30T03:31:37.674Z,80.76
2018-08-30T03:36:39.817Z,80.70
2018-08-30T03:41:41.973Z,81.11
2018-08-30T03:46:44.102Z,81.16
2018-08-30T03:51:46.215Z,81.27
2018-08-30T03:56:48.348Z,81.83
2018-08-30T04:01:50.481Z,82.26
2018-08-30T04:06:52.613Z,82.05
2018-08-30T04:11:54.733Z,82.29
2018-08-30T04:16:56.908Z,82.04
2018-08-30T04:21:59.180Z,82.42
2018-08-30T04:27:01.311Z,82.60
2018-08-30T04:32:03.440Z,82.48
2018-08-30T04:37:05.614Z,82.40
2018-08-30T04:42:07.739Z,82.50
2018-08-30T04:47:09.862Z,82.88
2018-08-30T04:52:12.025Z,82.67
2018-08-30T04:57:14.171Z,82.94
2018-08-30T05:02:16.318Z,83.47
2018-08-30T05:07:18.498Z,82.94
2018-08-30T05:12:20.632Z,82.77
2018-08-30T05:17:22.728Z,82.47
2018-08-30T05:22:24.868Z,81.93
2018-08-30T05:27:27.018Z,82.79
2018-08-30T05:32:29.247Z,83.36
2018-08-30T05:37:31.827Z,83.27
2018-08-30T05:42:34.042Z,83.68
2018-08-30T05:47:36.190Z,84.20
2018-08-30T05:52:38.319Z,83.44
2018-08-30T05:57:40.420Z,83.42
2018-08-30T06:02:42.559Z,83.87
2018-08-30T06:07:44.669Z,84.06
2018-08-30T06:12:46.792Z,83.96
2018-08-30T06:17:48.936Z,84.29
2018-08-30T06:22:51.080Z,84.04
2018-08-30T06:27:53.181Z,83.55
2018-08-30T06:32:55.445Z,83.65
2018-08-30T06:37:57.510Z,83.97
2018-08-30T06:42:59.652Z,83.60
2018-08-30T06:48:01.798Z,83.77
2018-08-30T06:53:03.959Z,83.48
2018-08-30T06:58:06.085Z,83.59
2018-08-30T07:03:08.204Z,83.95
2018-08-30T07:08:10.557Z,83.81
2018-08-30T07:13:12.676Z,83.79
2018-08-30T07:18:14.813Z,84.02
2018-08-30T07:23:16.935Z,84.08
2018-08-30T07:28:19.057Z,83.57
2018-08-30T07:33:21.213Z,83.66
2018-08-30T07:38:23.391Z,84.02
2018-08-30T07:43:25.522Z,83.01
2018-08-30T07:48:27.649Z,83.53
2018-08-30T07:53:29.797Z,82.44
2018-08-30T07:58:31.989Z,82.05
2018-08-30T08:03:34.110Z,81.34
2018-08-30T08:08:36.222Z,81.18
2018-08-30T08:13:38.371Z,81.51
2018-08-30T08:18:40.523Z,81.31
2018-08-30T08:23:42.660Z,81.29
2018-08-30T08:28:44.820Z,81.21
2018-08-30T08:33:47.005Z,81.27
2018-08-30T08:38:49.378Z,80.62
2018-08-30T08:43:51.511Z,80.93
2018-08-30T08:48:53.634Z,80.12
2018-08-30T08:53:55.771Z,80.56
2018-08-30T08:58:58.340Z,80.80
2018-08-30T09:04:00.366Z,81.13
2018-08-30T09:09:03.044Z,81.61
2018-08-30T09:14:05.247Z,81.61
2018-08-30T09:19:07.406Z,81.48
2018-08-30T09:24:09.572Z,82.11
2018-08-30T09:29:11.974Z,81.81
2018-08-30T09:34:14.131Z,81.88
2018-08-30T09:39:16.327Z,81.93
2018-08-30T09:44:18.483Z,82.26
2018-08-30T09:49:20.761Z,81.88
2018-08-30T09:54:22.823Z,81.38
2018-08-30T09:59:24.939Z,81.88
2018-08-30T10:04:27.074Z,82.00
2018-08-30T10:09:29.196Z,81.83
2018-08-30T10:14:31.362Z,81.47
2018-08-30T10:19:33.499Z,82.03
2018-08-30T10:24:35.669Z,81.45
2018-08-30T10:29:37.861Z,81.39
2018-08-30T10:34:40.035Z,81.51
2018-08-30T10:39:42.183Z,82.29
2018-08-30T10:44:44.530Z,81.35
2018-08-30T10:49:46.722Z,81.53
2018-08-30T10:54:48.817Z,81.75
2018-08-30T10:59:50.979Z,81.56
2018-08-30T11:04:53.239Z,81.02
2018-08-30T11:09:55.436Z,81.55
2018-08-30T11:14:57.631Z,81.73
2018-08-30T11:19:59.809Z,81.67
2018-08-30T11:25:02.018Z,81.41
2018-08-30T11:30:04.202Z,81.69
2018-08-30T11:35:06.358Z,81.05
2018-08-30T11:40:08.547Z,81.52
2018-08-30T11:45:10.737Z,80.78
2018-08-30T11:50:12.887Z,81.18
2018-08-30T11:55:15.068Z,81.00
2018-08-30T12:00:17.190Z,80.72
2018-08-30T12:05:19.345Z,80.91
2018-08-30T12:10:21.561Z,81.53
2018-08-30T12:15:23.726Z,81.49
2018-08-30T12:20:25.948Z,81.49
2018-08-30T12:25:28.074Z,81.28
2018-08-30T12:30:30.285Z,81.52
2018-08-30T12:35:32.526Z,81.69
2018-08-30T12:40:34.778Z,81.81
2018-08-30T12:45:36.981Z,80.98
2018-08-30T12:50:39.531Z,81.49
2018-08-30T12:55:41.679Z,81.82
2018-08-30T13:00:43.893Z,82.11
2018-08-30T13:05:46.313Z,80.96
2018-08-30T13:10:48.501Z,80.54
2018-08-30T13:15:50.519Z,81.25
2018-08-30T13:20:52.798Z,80.43
2018-08-30T13:25:54.922Z,80.73
2018-08-30T13:30:57.218Z,81.38
2018-08-30T13:35:59.415Z,80.70
2018-08-30T13:41:01.663Z,80.87
2018-08-30T13:46:03.942Z,80.58
2018-08-30T13:51:06.277Z,80.03
2018-08-30T13:56:08.469Z,80.43
2018-08-30T14:01:11.015Z,80.34
2018-08-30T14:06:12.736Z,79.71
2018-08-30T14:11:14.989Z,80.80
2018-08-30T14:16:16.852Z,80.46
2018-08-30T14:21:19.133Z,80.70
2018-08-30T14:26:21.268Z,80.76
2018-08-30T14:31:23.401Z,80.24
2018-08-30T14:36:25.548Z,81.10
2018-08-30T14:41:27.798Z,80.91
2018-08-30T14:46:29.932Z,81.01
2018-08-30T14:51:32.218Z,80.51
2018-08-30T14:56:34.410Z,81.33
2018-08-30T15:01:36.593Z,81.25
2018-08-30T15:06:38.776Z,80.73
2018-08-30T15:11:40.979Z,81.54
2018-08-30T15:21:45.242Z,80.63
2018-08-30T15:26:47.582Z,80.62
2018-08-30T15:31:49.703Z,80.54
2018-08-30T15:36:51.881Z,79.92
2018-08-30T15:41:54.170Z,80.28
2018-08-30T15:46:56.327Z,80.44
2018-08-30T15:51:58.748Z,81.40
2018-08-30T15:57:01.073Z,81.58
2018-08-30T16:02:03.192Z,81.46
2018-08-30T16:07:05.386Z,81.20
2018-08-30T16:12:07.627Z,80.77
2018-08-30T16:17:09.858Z,81.06
2018-08-30T16:22:12.057Z,81.16
2018-08-30T16:27:14.303Z,80.80
2018-08-30T16:32:16.497Z,81.31
2018-08-30T16:37:18.688Z,81.71
2018-08-30T16:42:20.919Z,82.49
2018-08-30T16:47:23.173Z,82.20
2018-08-30T16:52:25.330Z,82.21
2018-08-30T16:57:27.522Z,82.55
2018-08-30T17:02:29.925Z,82.83
2018-08-30T17:07:32.170Z,82.86
2018-08-30T17:12:34.461Z,82.79
2018-08-30T17:17:36.847Z,82.52
2018-08-30T17:22:39.187Z,83.05
2018-08-30T17:27:41.445Z,83.18
2018-08-30T17:32:43.683Z,82.93
2018-08-30T17:37:45.924Z,83.43
2018-08-30T17:42:48.584Z,82.80
2018-08-30T17:47:50.885Z,80.57
2018-08-30T17:52:53.186Z,79.13
2018-08-30T17:57:55.619Z,78.09
2018-08-30T18:02:57.919Z,78.28
2018-08-30T18:08:00.224Z,77.00
2018-08-30T18:13:02.441Z,77.33
2018-08-30T18:18:05.524Z,77.73
2018-08-30T18:23:07.714Z,77.17
2018-08-30T18:28:09.988Z,76.06
2018-08-30T18:33:12.926Z,76.61
2018-08-30T18:38:15.977Z,76.08
2018-08-30T18:43:18.333Z,75.95
2018-08-30T18:48:20.687Z,76.16
2018-08-30T18:53:24.647Z,74.15
2018-08-30T18:58:26.918Z,74.33
2018-08-30T19:03:29.227Z,74.50
2018-08-30T19:08:31.612Z,74.79
2018-08-30T19:13:33.965Z,74.31
2018-08-30T19:18:42.703Z,73.78
2018-08-30T19:23:45.004Z,73.54
2018-08-30T19:28:47.515Z,73.14
2018-08-30T19:33:50.901Z,72.73
2018-08-30T19:38:53.166Z,73.00
2018-08-30T19:43:55.549Z,72.62
2018-08-30T19:48:57.804Z,71.39
2018-08-30T19:54:00.023Z,72.51
2018-08-30T19:59:02.331Z,71.46
2018-08-30T20:04:05.543Z,72.68
2018-08-30T20:09:07.781Z,71.94
2018-08-30T20:14:10.024Z,72.18
2018-08-30T20:19:12.276Z,72.20
2018-08-30T20:24:14.486Z,71.59
2018-08-30T20:29:16.666Z,70.66
2018-08-30T20:34:18.814Z,71.37
2018-08-30T20:39:20.995Z,70.67
2018-08-30T20:44:23.261Z,71.14
2018-08-30T20:49:25.451Z,71.67
2018-08-30T20:54:27.638Z,71.21
2018-08-30T20:59:30.744Z,71.50
2018-08-30T21:04:32.937Z,71.33
2018-08-30T21:09:35.123Z,71.64
2018-08-30T21:14:37.274Z,71.17
2018-08-30T21:19:40.035Z,71.44
2018-08-30T21:24:42.162Z,71.87
2018-08-30T21:29:44.361Z,71.54
2018-08-30T21:34:46.477Z,71.63
2018-08-30T21:39:48.627Z,71.55
2018-08-30T21:44:50.823Z,71.76
2018-08-30T21:49:52.988Z,71.26
2018-08-30T21:54:55.188Z,71.96
2018-08-30T21:59:57.379Z,72.68
2018-08-30T22:04:59.650Z,72.57
2018-08-30T22:10:02.294Z,72.61
2018-08-30T22:15:04.781Z,72.15
2018-08-30T22:20:07.009Z,71.89
2018-08-30T22:25:09.189Z,73.26
2018-08-30T22:30:11.354Z,72.84
2018-08-30T22:35:13.538Z,72.68
2018-08-30T22:40:15.716Z,72.76
2018-08-30T22:45:17.901Z,73.37
2018-08-30T22:50:20.029Z,73.00
2018-08-30T22:55:22.302Z,72.68
2018-08-30T23:00:24.447Z,72.88
2018-08-30T23:05:26.686Z,72.69
2018-08-30T23:10:28.869Z,73.08
2018-08-30T23:15:31.017Z,73.38
2018-08-30T23:20:33.191Z,73.17
2018-08-30T23:25:35.316Z,73.35
2018-08-30T23:30:37.531Z,73.30
2018-08-30T23:35:39.644Z,73.63
2018-08-30T23:40:41.820Z,73.79
2018-08-30T23:45:43.998Z,73.98
2018-08-30T23:50:46.141Z,73.60
2018-08-30T23:55:48.305Z,73.65
